Terminal Aerodrome Forecast
Issued by NWS

Home | Current Version | Previous Version | Text Only | Print | Product List | Glossary On
Versions: 1 2 3 4 5 6 7 8 9 10 11 12 13 14 15 16 17 18 19 20 21 22 23 24 25 26
000
FTPQ31 PGUM 252344
TAFGUM
TAF

TAF
PGRO 252344Z 2600/2624 11011KT P6SM -RA SCT016 BKN060 OVC100
      TEMPO 2600/2604 12011G18KT 4SM SHRA BKN016 OVC040
     FM260600 11010KT P6SM VCSH SCT018 SCT060 BKN120=

USA.gov is the U.S. government's official web portal to all federal, state and local government web resources and services.